sensor_id;sensor_type;location;lat;lon;timestamp;pressure;altitude;pressure_sealevel;temperature;humidity
8294;BME280;4185;41.506;24.938;2023-07-13T00:00:53;93965.88;;;21.03;83.81
8294;BME280;4185;41.506;24.938;2023-07-13T00:03:21;93967.81;;;20.95;84.35
8294;BME280;4185;41.506;24.938;2023-07-13T00:05:57;93966.09;;;20.92;85.09
8294;BME280;4185;41.506;24.938;2023-07-13T00:08:24;93961.88;;;20.91;85.21
8294;BME280;4185;41.506;24.938;2023-07-13T00:10:51;93958.78;;;20.95;85.29
8294;BME280;4185;41.506;24.938;2023-07-13T00:13:19;93946.31;;;21.01;84.80
8294;BME280;4185;41.506;24.938;2023-07-13T00:15:46;93954.00;;;20.95;84.48
8294;BME280;4185;41.506;24.938;2023-07-13T00:18:15;93956.91;;;20.90;84.98
8294;BME280;4185;41.506;24.938;2023-07-13T00:20:42;93958.53;;;20.85;85.06
8294;BME280;4185;41.506;24.938;2023-07-13T00:23:09;93961.28;;;20.85;84.96
8294;BME280;4185;41.506;24.938;2023-07-13T00:25:35;93963.00;;;20.96;84.39
8294;BME280;4185;41.506;24.938;2023-07-13T00:28:02;93954.53;;;20.94;83.91
8294;BME280;4185;41.506;24.938;2023-07-13T00:30:29;93949.53;;;20.92;83.98
8294;BME280;4185;41.506;24.938;2023-07-13T00:32:56;93951.72;;;20.86;84.59
8294;BME280;4185;41.506;24.938;2023-07-13T00:35:25;93953.00;;;20.85;84.49
8294;BME280;4185;41.506;24.938;2023-07-13T00:37:52;93951.31;;;20.82;84.71
8294;BME280;4185;41.506;24.938;2023-07-13T00:40:19;93938.53;;;20.72;84.76
8294;BME280;4185;41.506;24.938;2023-07-13T00:42:46;93940.69;;;20.66;85.16
8294;BME280;4185;41.506;24.938;2023-07-13T00:48:21;93939.91;;;20.57;85.32
8294;BME280;4185;41.506;24.938;2023-07-13T00:50:52;93935.66;;;20.56;85.25
8294;BME280;4185;41.506;24.938;2023-07-13T00:53:20;93944.47;;;20.55;85.42
8294;BME280;4185;41.506;24.938;2023-07-13T00:55:47;93941.69;;;20.55;85.15
8294;BME280;4185;41.506;24.938;2023-07-13T00:58:15;93934.31;;;20.50;85.25
8294;BME280;4185;41.506;24.938;2023-07-13T01:00:42;93941.88;;;20.49;85.61
8294;BME280;4185;41.506;24.938;2023-07-13T01:03:09;93941.13;;;20.49;85.75
8294;BME280;4185;41.506;24.938;2023-07-13T01:05:36;93936.69;;;20.46;86.18
8294;BME280;4185;41.506;24.938;2023-07-13T01:08:06;93939.97;;;20.44;86.08
8294;BME280;4185;41.506;24.938;2023-07-13T01:10:33;93938.63;;;20.38;86.23
8294;BME280;4185;41.506;24.938;2023-07-13T01:13:04;93934.38;;;20.37;86.38
8294;BME280;4185;41.506;24.938;2023-07-13T01:15:37;93932.50;;;20.32;85.89
8294;BME280;4185;41.506;24.938;2023-07-13T01:18:05;93937.00;;;20.22;86.24
8294;BME280;4185;41.506;24.938;2023-07-13T01:20:32;93930.88;;;20.16;86.68
8294;BME280;4185;41.506;24.938;2023-07-13T01:23:05;93928.84;;;20.16;86.77
8294;BME280;4185;41.506;24.938;2023-07-13T01:25:34;93938.50;;;20.10;86.92
8294;BME280;4185;41.506;24.938;2023-07-13T01:28:01;93941.06;;;20.08;86.77
8294;BME280;4185;41.506;24.938;2023-07-13T01:30:28;93937.25;;;20.11;86.76
8294;BME280;4185;41.506;24.938;2023-07-13T01:32:55;93930.56;;;20.06;85.89
8294;BME280;4185;41.506;24.938;2023-07-13T01:35:22;93929.81;;;20.06;86.36
8294;BME280;4185;41.506;24.938;2023-07-13T01:37:50;93926.66;;;20.02;86.47
8294;BME280;4185;41.506;24.938;2023-07-13T01:40:19;93934.66;;;19.92;86.63
8294;BME280;4185;41.506;24.938;2023-07-13T01:42:46;93937.22;;;19.90;86.97
8294;BME280;4185;41.506;24.938;2023-07-13T01:45:13;93930.94;;;19.90;86.58
8294;BME280;4185;41.506;24.938;2023-07-13T01:47:40;93930.75;;;19.88;86.90
8294;BME280;4185;41.506;24.938;2023-07-13T01:50:07;93927.97;;;19.88;87.60
8294;BME280;4185;41.506;24.938;2023-07-13T01:52:34;93919.47;;;19.99;87.22
8294;BME280;4185;41.506;24.938;2023-07-13T01:55:01;93921.16;;;20.02;86.89
8294;BME280;4185;41.506;24.938;2023-07-13T01:57:30;93916.28;;;19.95;86.61
8294;BME280;4185;41.506;24.938;2023-07-13T01:59:56;93925.44;;;19.90;87.33
8294;BME280;4185;41.506;24.938;2023-07-13T02:02:23;93930.34;;;19.84;87.17
8294;BME280;4185;41.506;24.938;2023-07-13T02:04:50;93929.94;;;19.80;87.51
8294;BME280;4185;41.506;24.938;2023-07-13T02:07:17;93921.22;;;19.76;88.07
8294;BME280;4185;41.506;24.938;2023-07-13T02:09:43;93919.34;;;19.71;88.19
8294;BME280;4185;41.506;24.938;2023-07-13T02:12:10;93929.66;;;19.70;88.10
8294;BME280;4185;41.506;24.938;2023-07-13T02:14:38;93919.75;;;19.75;88.08
8294;BME280;4185;41.506;24.938;2023-07-13T02:17:05;93926.75;;;19.76;87.73
8294;BME280;4185;41.506;24.938;2023-07-13T02:19:32;93933.97;;;19.79;87.43
8294;BME280;4185;41.506;24.938;2023-07-13T02:21:59;93930.34;;;19.84;87.01
8294;BME280;4185;41.506;24.938;2023-07-13T02:24:26;93931.59;;;19.83;86.44
8294;BME280;4185;41.506;24.938;2023-07-13T02:26:52;93934.56;;;19.85;86.70
8294;BME280;4185;41.506;24.938;2023-07-13T02:29:19;93930.13;;;19.82;86.73
8294;BME280;4185;41.506;24.938;2023-07-13T02:31:48;93934.16;;;19.81;86.61
8294;BME280;4185;41.506;24.938;2023-07-13T02:34:14;93936.03;;;19.86;86.39
8294;BME280;4185;41.506;24.938;2023-07-13T02:36:41;93932.16;;;19.81;86.02
8294;BME280;4185;41.506;24.938;2023-07-13T02:39:09;93939.06;;;19.75;86.04
8294;BME280;4185;41.506;24.938;2023-07-13T02:41:37;93940.56;;;19.63;86.58
8294;BME280;4185;41.506;24.938;2023-07-13T02:44:04;93927.66;;;19.58;87.25
8294;BME280;4185;41.506;24.938;2023-07-13T02:46:34;93945.91;;;19.48;86.87
8294;BME280;4185;41.506;24.938;2023-07-13T02:49:03;93937.22;;;19.43;87.15
8294;BME280;4185;41.506;24.938;2023-07-13T02:51:30;93948.53;;;19.40;87.49
8294;BME280;4185;41.506;24.938;2023-07-13T02:53:59;93943.69;;;19.46;87.20
8294;BME280;4185;41.506;24.938;2023-07-13T02:56:27;93943.25;;;19.42;86.87
8294;BME280;4185;41.506;24.938;2023-07-13T02:58:55;93946.97;;;19.45;86.39
8294;BME280;4185;41.506;24.938;2023-07-13T03:01:22;93945.03;;;19.53;86.28
8294;BME280;4185;41.506;24.938;2023-07-13T03:03:49;93947.78;;;19.53;86.66
8294;BME280;4185;41.506;24.938;2023-07-13T03:06:18;93954.47;;;19.57;87.42
8294;BME280;4185;41.506;24.938;2023-07-13T03:08:47;93954.78;;;19.54;86.88
8294;BME280;4185;41.506;24.938;2023-07-13T03:11:16;93945.47;;;19.43;86.58
8294;BME280;4185;41.506;24.938;2023-07-13T03:13:43;93947.59;;;19.37;87.23
8294;BME280;4185;41.506;24.938;2023-07-13T03:16:11;93950.75;;;19.28;87.39
8294;BME280;4185;41.506;24.938;2023-07-13T03:18:38;93949.28;;;19.27;87.32
8294;BME280;4185;41.506;24.938;2023-07-13T03:21:05;93953.28;;;19.26;86.67
8294;BME280;4185;41.506;24.938;2023-07-13T03:23:33;93953.97;;;19.19;86.79
8294;BME280;4185;41.506;24.938;2023-07-13T03:26:02;93951.63;;;19.10;87.91
8294;BME280;4185;41.506;24.938;2023-07-13T03:28:29;93955.31;;;19.13;88.36
8294;BME280;4185;41.506;24.938;2023-07-13T03:31:00;93951.63;;;19.10;88.98
8294;BME280;4185;41.506;24.938;2023-07-13T03:33:27;93956.38;;;19.10;89.06
8294;BME280;4185;41.506;24.938;2023-07-13T03:35:55;93961.13;;;19.09;89.17
8294;BME280;4185;41.506;24.938;2023-07-13T03:38:22;93962.41;;;19.08;88.92
8294;BME280;4185;41.506;24.938;2023-07-13T03:40:50;93962.84;;;19.12;88.62
8294;BME280;4185;41.506;24.938;2023-07-13T03:43:17;93965.16;;;19.08;88.55
8294;BME280;4185;41.506;24.938;2023-07-13T03:45:45;93958.28;;;19.15;88.54
8294;BME280;4185;41.506;24.938;2023-07-13T03:48:12;93959.66;;;19.21;88.34
8294;BME280;4185;41.506;24.938;2023-07-13T03:50:39;93967.19;;;19.21;88.16
8294;BME280;4185;41.506;24.938;2023-07-13T03:53:07;93967.91;;;19.21;88.06
8294;BME280;4185;41.506;24.938;2023-07-13T03:55:33;93971.31;;;19.27;87.30
8294;BME280;4185;41.506;24.938;2023-07-13T03:58:29;93962.25;;;19.32;87.60
8294;BME280;4185;41.506;24.938;2023-07-13T04:00:57;93970.06;;;19.41;87.02
8294;BME280;4185;41.506;24.938;2023-07-13T04:03:24;93963.28;;;19.42;86.93
8294;BME280;4185;41.506;24.938;2023-07-13T04:05:53;93972.31;;;19.43;87.41
8294;BME280;4185;41.506;24.938;2023-07-13T04:08:20;93969.53;;;19.43;88.53
8294;BME280;4185;41.506;24.938;2023-07-13T04:10:47;93971.97;;;19.47;88.60
8294;BME280;4185;41.506;24.938;2023-07-13T04:13:15;93976.81;;;19.54;88.55
8294;BME280;4185;41.506;24.938;2023-07-13T04:15:42;93977.25;;;19.58;87.55
8294;BME280;4185;41.506;24.938;2023-07-13T04:18:09;93967.69;;;19.59;87.00
8294;BME280;4185;41.506;24.938;2023-07-13T04:20:36;93968.78;;;19.56;87.34
8294;BME280;4185;41.506;24.938;2023-07-13T04:23:03;93973.03;;;19.57;87.85
8294;BME280;4185;41.506;24.938;2023-07-13T04:25:29;93966.22;;;19.58;88.21
8294;BME280;4185;41.506;24.938;2023-07-13T04:27:56;93978.72;;;19.59;88.69
8294;BME280;4185;41.506;24.938;2023-07-13T04:30:25;93972.56;;;19.66;88.76
8294;BME280;4185;41.506;24.938;2023-07-13T04:32:52;93975.22;;;19.71;88.30
8294;BME280;4185;41.506;24.938;2023-07-13T04:35:19;93976.69;;;19.72;88.26
8294;BME280;4185;41.506;24.938;2023-07-13T04:37:47;93976.78;;;19.80;87.86
8294;BME280;4185;41.506;24.938;2023-07-13T04:40:16;93984.41;;;19.87;88.04
8294;BME280;4185;41.506;24.938;2023-07-13T04:42:43;93985.84;;;20.01;87.94
8294;BME280;4185;41.506;24.938;2023-07-13T04:45:10;93984.03;;;20.16;87.03
8294;BME280;4185;41.506;24.938;2023-07-13T04:47:39;93983.25;;;20.29;86.62
8294;BME280;4185;41.506;24.938;2023-07-13T04:50:07;93976.66;;;20.32;87.17
8294;BME280;4185;41.506;24.938;2023-07-13T04:52:34;93983.38;;;20.44;87.22
8294;BME280;4185;41.506;24.938;2023-07-13T04:55:01;93974.31;;;20.56;86.61
8294;BME280;4185;41.506;24.938;2023-07-13T04:57:28;93976.78;;;20.68;86.39
8294;BME280;4185;41.506;24.938;2023-07-13T04:59:55;93969.28;;;20.76;86.07
8294;BME280;4185;41.506;24.938;2023-07-13T05:02:21;93969.56;;;20.85;86.03
8294;BME280;4185;41.506;24.938;2023-07-13T05:04:50;93948.75;;;20.84;86.19
8294;BME280;4185;41.506;24.938;2023-07-13T05:07:16;93971.72;;;21.00;87.00
8294;BME280;4185;41.506;24.938;2023-07-13T05:09:43;93970.28;;;21.06;86.23
8294;BME280;4185;41.506;24.938;2023-07-13T05:12:10;93963.41;;;21.20;86.59
8294;BME280;4185;41.506;24.938;2023-07-13T05:14:37;93971.56;;;21.33;85.76
8294;BME280;4185;41.506;24.938;2023-07-13T05:17:04;93969.59;;;21.41;86.83
8294;BME280;4185;41.506;24.938;2023-07-13T05:19:31;93973.16;;;21.49;86.18
8294;BME280;4185;41.506;24.938;2023-07-13T05:21:59;93974.13;;;21.59;85.38
8294;BME280;4185;41.506;24.938;2023-07-13T05:24:28;93978.06;;;21.71;84.90
8294;BME280;4185;41.506;24.938;2023-07-13T05:26:55;93974.44;;;21.84;85.03
8294;BME280;4185;41.506;24.938;2023-07-13T05:29:22;93973.72;;;21.91;86.12
8294;BME280;4185;41.506;24.938;2023-07-13T05:31:50;93968.19;;;21.99;86.58
8294;BME280;4185;41.506;24.938;2023-07-13T05:34:17;93973.78;;;22.06;87.63
8294;BME280;4185;41.506;24.938;2023-07-13T05:36:44;93972.69;;;22.17;85.36
8294;BME280;4185;41.506;24.938;2023-07-13T05:39:12;93968.13;;;22.27;84.49
8294;BME280;4185;41.506;24.938;2023-07-13T05:41:38;93973.13;;;22.36;85.04
8294;BME280;4185;41.506;24.938;2023-07-13T05:44:05;93967.22;;;22.47;84.70
8294;BME280;4185;41.506;24.938;2023-07-13T05:46:32;93972.59;;;22.52;85.50
8294;BME280;4185;41.506;24.938;2023-07-13T05:48:59;93971.16;;;22.59;84.52
8294;BME280;4185;41.506;24.938;2023-07-13T05:51:26;93959.16;;;22.64;84.52
8294;BME280;4185;41.506;24.938;2023-07-13T05:53:52;93958.41;;;22.71;84.51
8294;BME280;4185;41.506;24.938;2023-07-13T05:56:21;93959.34;;;22.81;84.19
8294;BME280;4185;41.506;24.938;2023-07-13T05:58:48;93960.44;;;22.85;83.62
8294;BME280;4185;41.506;24.938;2023-07-13T06:01:15;93962.09;;;22.96;81.46
8294;BME280;4185;41.506;24.938;2023-07-13T06:03:42;93957.28;;;23.04;82.22
8294;BME280;4185;41.506;24.938;2023-07-13T06:06:10;93960.97;;;23.14;82.17
8294;BME280;4185;41.506;24.938;2023-07-13T06:08:37;93953.75;;;23.26;82.63
8294;BME280;4185;41.506;24.938;2023-07-13T06:11:05;93963.00;;;23.36;85.09
8294;BME280;4185;41.506;24.938;2023-07-13T06:13:33;93962.63;;;23.47;84.14
8294;BME280;4185;41.506;24.938;2023-07-13T06:16:00;93961.63;;;23.60;82.53
8294;BME280;4185;41.506;24.938;2023-07-13T06:18:29;93953.25;;;23.75;79.34
8294;BME280;4185;41.506;24.938;2023-07-13T06:20:56;93948.97;;;23.81;78.43
8294;BME280;4185;41.506;24.938;2023-07-13T06:23:23;93947.66;;;23.90;79.22
8294;BME280;4185;41.506;24.938;2023-07-13T06:25:50;93942.28;;;23.99;78.03
8294;BME280;4185;41.506;24.938;2023-07-13T06:28:18;93938.91;;;24.08;77.79
8294;BME280;4185;41.506;24.938;2023-07-13T06:30:46;93927.75;;;24.16;78.46
8294;BME280;4185;41.506;24.938;2023-07-13T06:33:13;93933.25;;;24.24;80.37
8294;BME280;4185;41.506;24.938;2023-07-13T06:35:40;93929.13;;;24.32;79.17
8294;BME280;4185;41.506;24.938;2023-07-13T06:38:07;93923.16;;;24.43;78.57
8294;BME280;4185;41.506;24.938;2023-07-13T06:40:33;93923.25;;;24.53;77.25
8294;BME280;4185;41.506;24.938;2023-07-13T06:43:00;93915.94;;;24.65;76.74
8294;BME280;4185;41.506;24.938;2023-07-13T06:45:27;93920.91;;;24.74;76.98
8294;BME280;4185;41.506;24.938;2023-07-13T06:47:55;93918.22;;;24.83;76.61
8294;BME280;4185;41.506;24.938;2023-07-13T06:50:22;93914.84;;;24.92;75.55
8294;BME280;4185;41.506;24.938;2023-07-13T06:52:49;93917.69;;;25.02;75.12
8294;BME280;4185;41.506;24.938;2023-07-13T06:55:15;93918.53;;;25.12;73.87
8294;BME280;4185;41.506;24.938;2023-07-13T06:57:44;93915.88;;;25.21;72.55
8294;BME280;4185;41.506;24.938;2023-07-13T07:00:12;93917.25;;;25.30;72.20
8294;BME280;4185;41.506;24.938;2023-07-13T07:02:39;93908.28;;;25.39;69.44
8294;BME280;4185;41.506;24.938;2023-07-13T07:05:07;93920.22;;;25.49;69.39
8294;BME280;4185;41.506;24.938;2023-07-13T07:07:34;93912.69;;;25.59;69.77
8294;BME280;4185;41.506;24.938;2023-07-13T07:10:01;93914.97;;;25.70;69.18
8294;BME280;4185;41.506;24.938;2023-07-13T07:12:28;93917.06;;;25.79;69.09
8294;BME280;4185;41.506;24.938;2023-07-13T07:14:55;93916.59;;;25.90;67.95
8294;BME280;4185;41.506;24.938;2023-07-13T07:17:22;93905.78;;;25.94;67.34
8294;BME280;4185;41.506;24.938;2023-07-13T07:19:48;93913.78;;;26.07;65.41
8294;BME280;4185;41.506;24.938;2023-07-13T07:22:16;93916.63;;;26.17;64.53
8294;BME280;4185;41.506;24.938;2023-07-13T07:24:43;93916.13;;;26.28;63.97
8294;BME280;4185;41.506;24.938;2023-07-13T07:27:10;93916.31;;;26.39;64.02
8294;BME280;4185;41.506;24.938;2023-07-13T07:29:37;93909.47;;;26.50;63.38
8294;BME280;4185;41.506;24.938;2023-07-13T07:32:04;93904.69;;;26.60;62.50
8294;BME280;4185;41.506;24.938;2023-07-13T07:34:31;93905.91;;;26.67;61.41
8294;BME280;4185;41.506;24.938;2023-07-13T07:36:59;93903.88;;;26.77;61.41
8294;BME280;4185;41.506;24.938;2023-07-13T07:39:28;93904.66;;;26.87;62.17
8294;BME280;4185;41.506;24.938;2023-07-13T07:41:55;93898.66;;;27.00;59.59
8294;BME280;4185;41.506;24.938;2023-07-13T07:44:22;93892.53;;;27.11;59.11
8294;BME280;4185;41.506;24.938;2023-07-13T07:46:48;93896.34;;;27.25;57.46
8294;BME280;4185;41.506;24.938;2023-07-13T07:49:15;93895.81;;;27.36;56.85
8294;BME280;4185;41.506;24.938;2023-07-13T07:51:42;93893.47;;;27.51;55.92
8294;BME280;4185;41.506;24.938;2023-07-13T07:54:09;93890.81;;;27.63;55.21
8294;BME280;4185;41.506;24.938;2023-07-13T07:56:37;93890.22;;;27.74;55.83
8294;BME280;4185;41.506;24.938;2023-07-13T07:59:03;93888.59;;;27.81;55.98
8294;BME280;4185;41.506;24.938;2023-07-13T08:01:30;93889.91;;;27.89;55.70
8294;BME280;4185;41.506;24.938;2023-07-13T08:03:57;93887.88;;;27.99;55.97
8294;BME280;4185;41.506;24.938;2023-07-13T08:06:24;93890.06;;;28.10;56.32
8294;BME280;4185;41.506;24.938;2023-07-13T08:08:51;93886.78;;;28.23;54.48
8294;BME280;4185;41.506;24.938;2023-07-13T08:11:18;93881.63;;;28.29;52.93
8294;BME280;4185;41.506;24.938;2023-07-13T08:13:46;93881.00;;;28.40;54.16
8294;BME280;4185;41.506;24.938;2023-07-13T08:16:13;93888.91;;;28.53;54.06
8294;BME280;4185;41.506;24.938;2023-07-13T08:18:39;93883.44;;;28.65;53.66
8294;BME280;4185;41.506;24.938;2023-07-13T08:21:08;93879.53;;;28.80;51.76
8294;BME280;4185;41.506;24.938;2023-07-13T08:23:35;93884.75;;;28.95;46.72
8294;BME280;4185;41.506;24.938;2023-07-13T08:26:02;93881.44;;;29.08;44.98
8294;BME280;4185;41.506;24.938;2023-07-13T08:28:30;93877.50;;;29.11;46.88
8294;BME280;4185;41.506;24.938;2023-07-13T08:31:02;93888.53;;;29.30;45.94
8294;BME280;4185;41.506;24.938;2023-07-13T08:33:28;93880.09;;;29.39;45.63
8294;BME280;4185;41.506;24.938;2023-07-13T08:35:55;93879.41;;;29.50;43.40
8294;BME280;4185;41.506;24.938;2023-07-13T08:38:22;93882.13;;;29.60;41.90
8294;BME280;4185;41.506;24.938;2023-07-13T08:40:51;93878.56;;;29.69;39.27
8294;BME280;4185;41.506;24.938;2023-07-13T08:43:25;93879.22;;;29.79;38.93
8294;BME280;4185;41.506;24.938;2023-07-13T08:45:54;93874.25;;;29.89;39.53
8294;BME280;4185;41.506;24.938;2023-07-13T08:48:27;93885.50;;;30.01;39.60
8294;BME280;4185;41.506;24.938;2023-07-13T08:50:58;93885.53;;;30.12;40.54
8294;BME280;4185;41.506;24.938;2023-07-13T08:53:30;93881.44;;;30.25;38.99
8294;BME280;4185;41.506;24.938;2023-07-13T08:56:00;93876.94;;;30.31;39.74
8294;BME280;4185;41.506;24.938;2023-07-13T08:58:28;93877.56;;;30.41;38.29
8294;BME280;4185;41.506;24.938;2023-07-13T09:00:58;93882.47;;;30.52;37.61
8294;BME280;4185;41.506;24.938;2023-07-13T09:03:37;93877.59;;;30.64;38.43
8294;BME280;4185;41.506;24.938;2023-07-13T09:06:10;93876.88;;;30.75;40.07
8294;BME280;4185;41.506;24.938;2023-07-13T09:08:48;93876.19;;;30.86;40.00
8294;BME280;4185;41.506;24.938;2023-07-13T09:11:32;93872.50;;;30.95;40.13
8294;BME280;4185;41.506;24.938;2023-07-13T09:14:06;93863.22;;;31.04;39.85
8294;BME280;4185;41.506;24.938;2023-07-13T09:16:41;93869.31;;;31.13;40.43
8294;BME280;4185;41.506;24.938;2023-07-13T09:19:14;93863.44;;;31.20;40.24
8294;BME280;4185;41.506;24.938;2023-07-13T09:21:44;93865.38;;;31.29;39.63
8294;BME280;4185;41.506;24.938;2023-07-13T09:24:28;93865.28;;;31.39;41.00
8294;BME280;4185;41.506;24.938;2023-07-13T09:26:56;93864.38;;;31.48;38.73
8294;BME280;4185;41.506;24.938;2023-07-13T09:29:29;93848.88;;;31.47;37.84
8294;BME280;4185;41.506;24.938;2023-07-13T09:31:58;93858.50;;;31.55;37.44
8294;BME280;4185;41.506;24.938;2023-07-13T09:34:29;93859.44;;;31.60;37.53
8294;BME280;4185;41.506;24.938;2023-07-13T09:36:56;93853.06;;;31.71;37.33
8294;BME280;4185;41.506;24.938;2023-07-13T09:39:27;93852.91;;;31.80;37.02
8294;BME280;4185;41.506;24.938;2023-07-13T09:41:57;93858.63;;;31.94;37.57
8294;BME280;4185;41.506;24.938;2023-07-13T09:44:31;93856.66;;;31.96;37.55
8294;BME280;4185;41.506;24.938;2023-07-13T09:47:01;93853.94;;;31.98;36.84
8294;BME280;4185;41.506;24.938;2023-07-13T09:49:33;93831.69;;;32.02;37.76
8294;BME280;4185;41.506;24.938;2023-07-13T09:52:03;93835.44;;;32.07;37.75
8294;BME280;4185;41.506;24.938;2023-07-13T09:54:33;93830.16;;;32.13;37.88
8294;BME280;4185;41.506;24.938;2023-07-13T09:57:02;93829.34;;;32.24;37.99
8294;BME280;4185;41.506;24.938;2023-07-13T09:59:32;93827.09;;;32.34;38.23
8294;BME280;4185;41.506;24.938;2023-07-13T10:01:59;93820.69;;;32.45;38.09
8294;BME280;4185;41.506;24.938;2023-07-13T10:04:29;93817.56;;;32.53;37.54
8294;BME280;4185;41.506;24.938;2023-07-13T10:07:06;93822.50;;;32.66;36.34
8294;BME280;4185;41.506;24.938;2023-07-13T10:09:34;93809.47;;;32.72;36.61
8294;BME280;4185;41.506;24.938;2023-07-13T10:12:01;93816.34;;;32.83;37.69
8294;BME280;4185;41.506;24.938;2023-07-13T10:14:28;93804.66;;;32.88;35.48
8294;BME280;4185;41.506;24.938;2023-07-13T10:16:59;93806.34;;;32.93;34.45
8294;BME280;4185;41.506;24.938;2023-07-13T10:19:29;93803.88;;;32.99;35.78
8294;BME280;4185;41.506;24.938;2023-07-13T10:22:00;93798.34;;;33.01;34.29
8294;BME280;4185;41.506;24.938;2023-07-13T10:24:32;93792.91;;;33.05;34.13
8294;BME280;4185;41.506;24.938;2023-07-13T10:27:05;93793.31;;;33.13;35.77
8294;BME280;4185;41.506;24.938;2023-07-13T10:29:41;93786.84;;;33.24;35.25
8294;BME280;4185;41.506;24.938;2023-07-13T10:32:10;93785.16;;;33.33;34.42
8294;BME280;4185;41.506;24.938;2023-07-13T10:34:38;93785.53;;;33.41;34.85
8294;BME280;4185;41.506;24.938;2023-07-13T10:37:07;93778.88;;;33.48;35.06
8294;BME280;4185;41.506;24.938;2023-07-13T10:39:43;93785.53;;;33.55;34.81
8294;BME280;4185;41.506;24.938;2023-07-13T10:42:15;93772.56;;;33.63;36.16
8294;BME280;4185;41.506;24.938;2023-07-13T10:44:45;93780.75;;;33.73;35.95
8294;BME280;4185;41.506;24.938;2023-07-13T10:47:14;93769.34;;;33.84;34.76
8294;BME280;4185;41.506;24.938;2023-07-13T10:49:42;93763.16;;;33.88;34.39
8294;BME280;4185;41.506;24.938;2023-07-13T10:52:41;93760.84;;;33.98;34.79
8294;BME280;4185;41.506;24.938;2023-07-13T10:55:34;93759.75;;;34.05;34.31
8294;BME280;4185;41.506;24.938;2023-07-13T10:58:03;93751.59;;;33.82;33.83
8294;BME280;4185;41.506;24.938;2023-07-13T11:00:44;93752.88;;;33.79;34.12
8294;BME280;4185;41.506;24.938;2023-07-13T11:03:15;93765.69;;;33.82;34.76
8294;BME280;4185;41.506;24.938;2023-07-13T11:05:43;93749.91;;;33.90;35.22
8294;BME280;4185;41.506;24.938;2023-07-13T11:08:18;93761.56;;;33.98;34.54
8294;BME280;4185;41.506;24.938;2023-07-13T11:10:50;93745.66;;;34.05;34.86
8294;BME280;4185;41.506;24.938;2023-07-13T11:13:57;93739.50;;;34.24;35.58
8294;BME280;4185;41.506;24.938;2023-07-13T11:16:38;93760.88;;;34.29;34.30
8294;BME280;4185;41.506;24.938;2023-07-13T11:19:38;93738.50;;;34.33;35.09
8294;BME280;4185;41.506;24.938;2023-07-13T11:22:15;93742.66;;;34.32;33.94
8294;BME280;4185;41.506;24.938;2023-07-13T11:24:51;93740.56;;;34.32;33.61
8294;BME280;4185;41.506;24.938;2023-07-13T11:27:41;93738.59;;;34.35;34.45
8294;BME280;4185;41.506;24.938;2023-07-13T11:30:31;93753.41;;;34.35;34.30
8294;BME280;4185;41.506;24.938;2023-07-13T11:33:11;93750.47;;;34.33;34.70
8294;BME280;4185;41.506;24.938;2023-07-13T11:35:53;93752.06;;;34.36;34.75
8294;BME280;4185;41.506;24.938;2023-07-13T11:38:28;93750.03;;;34.39;34.44
8294;BME280;4185;41.506;24.938;2023-07-13T11:41:01;93742.53;;;34.43;34.10
8294;BME280;4185;41.506;24.938;2023-07-13T11:43:31;93741.47;;;34.37;33.90
8294;BME280;4185;41.506;24.938;2023-07-13T11:46:12;93748.78;;;34.26;33.44
8294;BME280;4185;41.506;24.938;2023-07-13T11:48:39;93738.31;;;34.29;33.97
8294;BME280;4185;41.506;24.938;2023-07-13T11:51:15;93734.88;;;34.46;33.92
8294;BME280;4185;41.506;24.938;2023-07-13T11:53:46;93748.22;;;34.61;33.33
8294;BME280;4185;41.506;24.938;2023-07-13T11:56:14;93737.78;;;34.64;33.49
8294;BME280;4185;41.506;24.938;2023-07-13T11:58:42;93739.50;;;34.71;33.58
8294;BME280;4185;41.506;24.938;2023-07-13T12:01:18;93734.75;;;34.75;33.03
8294;BME280;4185;41.506;24.938;2023-07-13T12:03:48;93724.78;;;34.90;32.56
8294;BME280;4185;41.506;24.938;2023-07-13T12:06:25;93730.06;;;34.97;32.87
8294;BME280;4185;41.506;24.938;2023-07-13T12:08:56;93731.13;;;35.06;32.00
8294;BME280;4185;41.506;24.938;2023-07-13T12:11:24;93726.56;;;35.14;33.18
8294;BME280;4185;41.506;24.938;2023-07-13T12:13:52;93724.78;;;35.23;32.65
8294;BME280;4185;41.506;24.938;2023-07-13T12:16:26;93732.34;;;35.18;31.83
8294;BME280;4185;41.506;24.938;2023-07-13T12:18:53;93729.06;;;35.24;31.05
8294;BME280;4185;41.506;24.938;2023-07-13T12:21:27;93722.94;;;35.29;30.73
8294;BME280;4185;41.506;24.938;2023-07-13T12:23:56;93727.81;;;35.44;31.56
8294;BME280;4185;41.506;24.938;2023-07-13T12:26:23;93717.72;;;35.39;32.36
8294;BME280;4185;41.506;24.938;2023-07-13T12:28:54;93722.53;;;35.37;31.93
8294;BME280;4185;41.506;24.938;2023-07-13T12:31:30;93714.25;;;35.41;32.05
8294;BME280;4185;41.506;24.938;2023-07-13T12:34:00;93713.16;;;35.32;32.64
8294;BME280;4185;41.506;24.938;2023-07-13T12:36:30;93698.56;;;35.38;32.54
8294;BME280;4185;41.506;24.938;2023-07-13T12:39:10;93698.19;;;35.63;32.76
8294;BME280;4185;41.506;24.938;2023-07-13T12:41:39;93709.53;;;35.83;32.65
8294;BME280;4185;41.506;24.938;2023-07-13T12:44:10;93705.44;;;35.86;32.31
8294;BME280;4185;41.506;24.938;2023-07-13T12:46:38;93710.69;;;35.93;32.73
8294;BME280;4185;41.506;24.938;2023-07-13T12:49:06;93706.06;;;36.02;32.84
8294;BME280;4185;41.506;24.938;2023-07-13T12:51:33;93715.78;;;35.97;32.40
8294;BME280;4185;41.506;24.938;2023-07-13T12:54:07;93711.00;;;35.84;32.36
8294;BME280;4185;41.506;24.938;2023-07-13T12:56:39;93709.47;;;35.81;33.23
8294;BME280;4185;41.506;24.938;2023-07-13T12:59:05;93709.75;;;36.06;33.65
8294;BME280;4185;41.506;24.938;2023-07-13T13:01:35;93703.44;;;35.88;32.86
8294;BME280;4185;41.506;24.938;2023-07-13T13:04:03;93702.59;;;35.86;33.17
8294;BME280;4185;41.506;24.938;2023-07-13T13:06:32;93698.88;;;35.99;33.08
8294;BME280;4185;41.506;24.938;2023-07-13T13:09:02;93696.81;;;36.19;33.19
8294;BME280;4185;41.506;24.938;2023-07-13T13:11:31;93701.25;;;36.24;32.86
8294;BME280;4185;41.506;24.938;2023-07-13T13:13:58;93694.34;;;36.29;33.70
8294;BME280;4185;41.506;24.938;2023-07-13T13:16:30;93693.16;;;36.34;33.63
8294;BME280;4185;41.506;24.938;2023-07-13T13:19:05;93698.59;;;36.47;33.54
8294;BME280;4185;41.506;24.938;2023-07-13T13:21:38;93689.69;;;36.55;33.75
8294;BME280;4185;41.506;24.938;2023-07-13T13:24:11;93683.78;;;36.49;33.49